Charter Quote
Worldwide +44-20-3874-8091 Call
Select Language Lang
SAFETY RELIABILITY EXPERIENCE

Plymouth Muni Airport (KPYM) - Jet Charter Services

AIRPORT INFORMATION
ICAOKPYM
IATAPYM
LOCATIONPlymouth, MA, United States
FACILITY TYPEAIRPORT

At Paramount Business Jets you can hire chartered private jets to and from Plymouth Muni Airport with as little as 4 hours of notice. All flights booked via Paramount Business Jets are operated by certified direct air carriers that meet and exceed the FAA part 135 and 121 protocol or a foreign equivalent safety authority. Furthermore, Paramount Business Jets subscribes to ARGUS for their third party safety checks of operators, aircraft, and crews prior each and every flight to and from Plymouth Muni Airport and worldwide.

  • Quote a trip using Plymouth Muni Airport or call us 24/7 - 365 days a year at +44-20-3874-8091.
Questions? Call +44-20-3874-8091

METAR Weather Data at Plymouth Muni Airport, KPYM, PYM

STATIONKPYM
OBSERVEDTue Feb 19, 09:52 UTC
NOWTue Feb 19, 10:30 UTC
AGE38 min ago
WINDWNW at 8 mph
VISIBILITY10 miles
CLOUDSclear skies
TEMP16°F (-9°C)
WIND CHILL5°F (-15°C)
DEWPT7°F (-14°C)
HUMIDITY67%
BAROMETER1028 hPa (30.35 in Hg)
METARKPYM 190952Z AUTO 30007KT 10SM CLR M09/M14 A3035 RMK AO2 SLP278 T10941139

Call us on +44-20-3874-8091 (24 Hours) to Hire a Private Jet or Get a Quick Quote.

Find Airports Near any Location

Processing
...